Time;durP1;ratioP1;P1;durP2;ratioP2;P2;SDS_P1;SDS_P2;PMS_P1;PMS_P2;Temp;Humidity;BMP_temperature;BMP_pressure;BME280_temperature;BME280_humidity;BME280_pressure;Samples;Min_cycle;Max_cycle;Signal;HPM_P1;HPM_P2
2022/06/16 10:22:25;;;;;;;13.07;9.27;;;30.70;49.40;;;;;;6280754;22;20024;-67
2022/06/16 10:25:00;;;;;;;11.80;8.20;;;30.90;49.60;;;;;;6170487;23;1359104;-65
2022/06/16 10:27:46;;;;;;;13.88;8.38;;;31.00;49.60;;;;;;6244283;23;20000;-67
2022/06/16 10:30:24;;;;;;;11.30;9.48;;;31.20;49.30;;;;;;6244536;23;20000;-66
2022/06/16 10:33:27;;;;;;;11.23;8.90;;;31.40;48.20;;;;;;6244995;23;20537;-65
2022/06/16 10:35:59;;;;;;;13.95;8.40;;;31.50;47.60;;;;;;6217297;23;20015;-66
2022/06/16 10:38:38;;;;;;;13.13;10.30;;;31.60;48.60;;;;;;6243838;23;20431;-66
2022/06/16 10:41:41;;;;;;;13.07;8.38;;;31.80;46.70;;;;;;6244172;23;20054;-66
2022/06/16 10:44:15;;;;;;;13.48;8.40;;;31.70;47.30;;;;;;6068741;23;20478;-66
2022/06/16 10:47:06;;;;;;;10.57;8.88;;;31.70;47.80;;;;;;6194125;23;20028;-65
2022/06/16 10:49:35;;;;;;;9.02;8.18;;;31.70;47.80;;;;;;6216222;23;20007;-66
2022/06/16 10:52:05;;;;;;;14.27;8.65;;;31.70;48.30;;;;;;6244042;23;20010;-66
2022/06/16 10:54:58;;;;;;;13.43;9.60;;;31.80;47.80;;;;;;6244185;23;19996;-65
2022/06/16 10:57:28;;;;;;;14.10;8.18;;;31.80;47.90;;;;;;6186786;23;20080;-65
2022/06/16 11:00:16;;;;;;;13.25;11.05;;;31.80;48.40;;;;;;6244309;23;20023;-64
2022/06/16 11:03:05;;;;;;;13.30;11.25;;;31.80;46.20;;;;;;6216714;23;20087;-64
2022/06/16 11:05:49;;;;;;;20.60;9.35;;;31.90;46.90;;;;;;6243720;23;20012;-65
2022/06/16 11:08:15;;;;;;;14.07;10.02;;;31.90;46.60;;;;;;6243891;23;19996;-65
2022/06/16 11:10:56;;;;;;;8.82;7.38;;;31.90;46.20;;;;;;6243977;23;20010;-66
2022/06/16 11:13:28;;;;;;;13.98;9.13;;;31.90;46.30;;;;;;6244029;23;20046;-66
2022/06/16 11:15:55;;;;;;;10.35;7.72;;;31.80;45.60;;;;;;6243663;23;20359;-62
2022/06/16 11:18:24;;;;;;;124.88;112.13;;;31.90;45.90;;;;;;6242924;23;20016;-61
2022/06/16 11:20:53;;;;;;;11.90;9.05;;;32.00;45.70;;;;;;6216916;23;20011;-66
2022/06/16 11:23:22;;;;;;;9.57;8.23;;;32.00;45.80;;;;;;6243914;23;20004;-66
2022/06/16 11:25:55;;;;;;;15.52;9.35;;;32.10;45.40;;;;;;6243803;23;20016;-65
2022/06/16 11:28:24;;;;;;;13.60;10.32;;;32.20;45.40;;;;;;6217282;23;20019;-65
2022/06/16 11:30:55;;;;;;;15.55;8.95;;;32.20;45.00;;;;;;6244358;23;20024;-65
2022/06/16 11:36:39;;;;;;;10.07;8.82;;;32.20;45.60;;;;;;6244145;23;20500;-64
2022/06/16 11:39:13;;;;;;;12.32;8.40;;;32.20;45.70;;;;;;6244068;23;20027;-66
2022/06/16 11:41:46;;;;;;;14.07;10.68;;;32.40;47.60;;;;;;6243814;23;20032;-66
2022/06/16 11:44:30;;;;;;;14.90;11.85;;;32.60;47.00;;;;;;6244252;23;20434;-65
2022/06/16 11:47:22;;;;;;;11.50;8.98;;;32.80;45.50;;;;;;6244027;23;20031;-66
2022/06/16 11:50:09;;;;;;;13.90;9.00;;;32.80;45.10;;;;;;6186689;23;20005;-66
2022/06/16 11:52:47;;;;;;;;;;;33.00;45.40;;;;;;6244346;23;20656;-66
2022/06/16 11:55:43;;;;;;;11.00;7.45;;;33.00;45.40;;;;;;6244006;23;19899;-66
2022/06/16 11:58:20;;;;;;;13.52;6.97;;;33.10;44.30;;;;;;6243899;23;20026;-66
2022/06/16 12:00:54;;;;;;;14.68;7.80;;;33.10;44.60;;;;;;6244107;23;20012;-66
2022/06/16 12:03:41;;;;;;;13.82;9.10;;;33.20;44.40;;;;;;6243830;23;20031;-66
2022/06/16 12:06:19;;;;;;;10.73;7.57;;;33.30;43.40;;;;;;6243825;23;20027;-66
2022/06/16 12:09:30;;;;;;;13.10;7.93;;;33.20;43.80;;;;;;6243901;23;20308;-65
2022/06/16 12:12:23;;;;;;;12.38;7.55;;;33.30;43.10;;;;;;6222582;23;20004;-66
2022/06/16 12:14:55;;;;;;;12.20;8.93;;;33.30;44.20;;;;;;6217047;23;20004;-66
2022/06/16 12:17:48;;;;;;;14.20;7.45;;;33.30;44.10;;;;;;6216918;23;20024;-66
2022/06/16 12:20:40;;;;;;;10.93;6.85;;;33.40;43.70;;;;;;6244099;23;20004;-65
2022/06/16 12:23:25;;;;;;;9.23;5.80;;;33.60;43.90;;;;;;6218856;23;20008;-65
2022/06/16 12:26:23;;;;;;;11.05;6.80;;;33.80;43.10;;;;;;6215256;23;20055;-65
2022/06/16 12:28:54;;;;;;;;;;;33.90;42.10;;;;;;6208630;23;20005;-66
2022/06/16 12:31:28;;;;;;;8.57;5.68;;;33.90;42.80;;;;;;6215120;23;19950;-65
2022/06/16 12:34:00;;;;;;;8.43;6.22;;;33.90;42.40;;;;;;6215546;23;20499;-65
2022/06/16 12:36:31;;;;;;;9.50;6.20;;;33.90;42.30;;;;;;6215125;23;20001;-65
2022/06/16 12:39:09;;;;;;;11.45;6.18;;;34.00;42.40;;;;;;6188671;23;20008;-65
2022/06/16 12:41:45;;;;;;;7.63;6.85;;;34.10;42.90;;;;;;6215176;23;20005;-67
2022/06/16 12:44:30;;;;;;;10.33;7.70;;;34.30;41.80;;;;;;6215374;23;20008;-66
2022/06/16 12:47:07;;;;;;;12.40;6.63;;;34.40;41.70;;;;;;6215011;23;20005;-67
2022/06/16 12:49:45;;;;;;;9.18;7.20;;;34.50;42.20;;;;;;6214705;23;19996;-66
2022/06/16 12:52:20;;;;;;;11.48;7.63;;;34.70;41.60;;;;;;6214818;23;20001;-66
2022/06/16 12:55:01;;;;;;;9.85;8.15;;;34.70;41.10;;;;;;6215050;23;20001;-66
2022/06/16 12:57:53;;;;;;;10.88;7.28;;;34.70;41.10;;;;;;6214860;23;20073;-67
2022/06/16 13:00:20;;;;;;;14.88;6.80;;;34.70;41.90;;;;;;6188416;23;20009;-65
2022/06/16 13:03:18;;;;;;;11.52;6.53;;;34.80;42.10;;;;;;6214784;23;20004;-65
2022/06/16 13:05:45;;;;;;;15.07;9.05;;;34.80;41.90;;;;;;6214973;23;20005;-66
2022/06/16 13:08:12;;;;;;;16.00;9.30;;;35.00;42.10;;;;;;6214977;23;20000;-66
2022/06/16 13:10:46;;;;;;;9.88;8.93;;;35.10;42.10;;;;;;6215342;23;20699;-66
2022/06/16 13:13:24;;;;;;;9.32;8.32;;;35.20;42.40;;;;;;6214131;23;20451;-66
2022/06/16 13:15:55;;;;;;;13.52;8.25;;;35.20;41.30;;;;;;6214902;23;20501;-67
2022/06/16 13:18:46;;;;;;;12.82;10.45;;;35.30;42.90;;;;;;6215050;23;20008;-67
2022/06/16 13:21:26;;;;;;;10.15;8.65;;;35.70;40.90;;;;;;6214945;23;20001;-66
2022/06/16 13:24:11;;;;;;;13.18;8.02;;;36.00;40.80;;;;;;6220639;23;20011;-67
2022/06/16 13:26:53;;;;;;;11.63;7.47;;;36.70;39.80;;;;;;6244967;23;20000;-66
2022/06/16 13:29:19;;;;;;;8.77;6.72;;;37.80;38.80;;;;;;6245201;23;20000;-66
2022/06/16 13:31:48;;;;;;;;;;;39.00;37.90;;;;;;6244710;23;20006;-66
2022/06/16 13:34:18;;;;;;;9.82;6.10;;;40.30;36.90;;;;;;6218139;23;19900;-65
2022/06/16 13:36:46;;;;;;;12.00;8.45;;;;;;;;;;6245006;23;20004;-66
2022/06/16 13:39:51;;;;;;;14.23;5.97;;;41.60;34.60;;;;;;6218335;23;20047;-66
2022/06/16 13:42:21;;;;;;;14.30;7.60;;;43.70;32.70;;;;;;6244776;23;20034;-67
2022/06/16 13:45:13;;;;;;;9.65;7.70;;;44.50;31.30;;;;;;6218274;23;20039;-67
2022/06/16 13:47:44;;;;;;;15.50;8.27;;;45.20;29.50;;;;;;6187471;23;20025;-67
2022/06/16 13:50:16;;;;;;;13.57;7.85;;;;;;;;;;6218144;23;20048;-67
2022/06/16 13:52:43;;;;;;;11.90;8.30;;;45.50;29.20;;;;;;6244845;23;20000;-67
2022/06/16 13:55:22;;;;;;;12.25;7.93;;;46.00;29.60;;;;;;6218074;23;20004;-67
2022/06/16 13:58:14;;;;;;;11.25;7.00;;;46.10;28.60;;;;;;6244753;23;20004;-68
2022/06/16 14:00:41;;;;;;;9.63;6.80;;;46.10;28.40;;;;;;6244800;23;20001;-68
2022/06/16 14:03:19;;;;;;;12.27;6.65;;;45.80;29.00;;;;;;6244281;23;20031;-68
2022/06/16 14:05:55;;;;;;;10.48;7.72;;;45.90;28.80;;;;;;6217896;23;20065;-67
2022/06/16 14:08:22;;;;;;;;;;;46.20;28.70;;;;;;6245404;23;20011;-68
2022/06/16 14:10:47;;;;;;;;;;;;;;;;;;6244749;23;19977;-67
2022/06/16 14:13:13;;;;;;;11.70;6.90;;;46.80;28.70;;;;;;6242925;23;19900;-67
2022/06/16 14:16:17;;;;;;;10.02;6.72;;;48.20;27.30;;;;;;6244703;23;20058;-67
2022/06/16 14:19:01;;;;;;;11.57;7.18;;;48.60;27.40;;;;;;6244173;23;20012;-68
2022/06/16 14:21:33;;;;;;;15.13;7.10;;;48.60;27.10;;;;;;6244347;23;20004;-68
2022/06/16 14:24:05;;;;;;;7.63;6.85;;;48.60;27.50;;;;;;6212563;23;20432;-67
2022/06/16 14:26:32;;;;;;;10.75;8.05;;;;;;;;;;6214086;23;20031;-68
2022/06/16 14:29:04;;;;;;;11.55;7.88;;;48.50;26.80;;;;;;6214230;23;20368;-69
2022/06/16 14:31:40;;;;;;;11.63;7.97;;;48.00;27.20;;;;;;6212968;23;20007;-67
2022/06/16 14:34:26;;;;;;;16.05;9.30;;;47.50;26.70;;;;;;6214052;23;20003;-67
2022/06/16 14:37:00;;;;;;;15.63;7.57;;;47.10;27.30;;;;;;6214499;23;20001;-67
2022/06/16 14:39:41;;;;;;;10.90;6.47;;;47.40;28.10;;;;;;6214272;23;20423;-67
2022/06/16 14:42:16;;;;;;;10.63;6.65;;;48.20;27.10;;;;;;6213903;23;20004;-67
2022/06/16 14:44:55;;;;;;;7.80;6.68;;;48.60;26.60;;;;;;6211828;23;20028;-67
2022/06/16 14:47:59;;;;;;;13.68;7.53;;;48.50;26.90;;;;;;6213684;23;20035;-67
2022/06/16 14:50:51;;;;;;;9.35;6.88;;;48.20;26.90;;;;;;6186105;23;20013;-66
2022/06/16 14:53:27;;;;;;;10.13;7.20;;;47.80;27.30;;;;;;6199919;23;20047;-68
2022/06/16 14:56:22;;;;;;;9.73;6.47;;;47.00;27.40;;;;;;6213307;23;20008;-68
2022/06/16 14:58:54;;;;;;;13.60;6.70;;;45.90;28.90;;;;;;6188162;23;20015;-68
2022/06/16 15:01:41;;;;;;;8.18;6.43;;;45.20;28.80;;;;;;6213327;23;20004;-68
2022/06/16 15:04:08;;;;;;;;;;;44.60;29.50;;;;;;6214578;23;20078;-68
2022/06/16 15:06:43;;;;;;;25.75;7.57;;;43.90;29.80;;;;;;6213752;23;19954;-68
2022/06/16 15:09:13;;;;;;;13.57;7.15;;;43.00;30.20;;;;;;6213537;23;20424;-68
2022/06/16 15:11:42;;;;;;;9.60;6.70;;;42.00;31.40;;;;;;6213421;23;20447;-68
2022/06/16 15:14:12;;;;;;;15.02;8.95;;;41.00;32.60;;;;;;6213678;23;20004;-67
2022/06/16 15:19:31;;;;;;;10.15;7.55;;;39.90;33.80;;;;;;6213569;23;20031;-68
2022/06/16 15:21:59;;;;;;;9.30;8.25;;;39.30;35.10;;;;;;6212306;23;20469;-68
2022/06/16 15:24:38;;;;;;;10.68;7.50;;;39.00;35.10;;;;;;6226091;23;20054;-68
2022/06/16 15:27:04;;;;;;;10.00;6.80;;;38.80;35.20;;;;;;6241963;23;20057;-68
2022/06/16 15:29:33;;;;;;;14.15;8.65;;;38.80;36.10;;;;;;6213085;23;20083;-68
2022/06/16 15:32:03;;;;;;;16.00;7.10;;;38.70;35.40;;;;;;6240078;23;20079;-68
2022/06/16 15:37:15;;;;;;;12.55;7.60;;;38.50;35.60;;;;;;6242983;23;20020;-65
2022/06/16 15:39:44;;;;;;;10.63;8.23;;;38.30;36.30;;;;;;6242713;23;19997;-64
2022/06/16 15:42:22;;;;;;;16.13;8.57;;;38.10;36.30;;;;;;6243403;23;20341;-68
2022/06/16 15:44:54;;;;;;;14.52;7.93;;;37.90;37.10;;;;;;6243710;23;20057;-68
2022/06/16 15:47:24;;;;;;;16.58;7.78;;;37.90;37.50;;;;;;6243488;23;20024;-68
2022/06/16 15:49:52;;;;;;;19.77;8.73;;;37.70;36.60;;;;;;6244035;23;20335;-67
2022/06/16 15:52:26;;;;;;;14.57;7.47;;;37.50;37.00;;;;;;6242573;23;19996;-67
2022/06/16 15:54:56;;;;;;;14.23;8.95;;;37.40;38.20;;;;;;6243022;23;20004;-68
2022/06/16 15:57:23;;;;;;;16.98;7.57;;;37.40;38.60;;;;;;6217753;23;20004;-67
2022/06/16 15:59:56;;;;;;;14.63;8.20;;;37.40;37.50;;;;;;6246019;23;20062;-68
2022/06/16 16:02:25;;;;;;;15.93;8.73;;;37.30;37.50;;;;;;6244793;23;20061;-68
2022/06/16 16:04:55;;;;;;;12.63;8.05;;;37.20;38.00;;;;;;6245718;23;20423;-68
2022/06/16 16:07:21;;;;;;;10.73;6.65;;;37.10;38.10;;;;;;6245173;23;20001;-68
2022/06/16 16:09:49;;;;;;;14.57;8.45;;;37.10;38.80;;;;;;6245423;23;20030;-67
2022/06/16 16:12:25;;;;;;;9.20;7.60;;;37.20;38.70;;;;;;6218276;23;20457;-67
2022/06/16 16:15:11;;;;;;;12.77;7.82;;;37.10;38.00;;;;;;6218290;23;20324;-67
2022/06/16 16:17:43;;;;;;;10.97;8.97;;;37.10;39.20;;;;;;6244843;23;20005;-68
2022/06/16 16:20:38;;;;;;;13.38;8.52;;;37.20;39.20;;;;;;6245583;23;20219;-68
2022/06/16 16:23:16;;;;;;;11.32;8.38;;;37.30;39.70;;;;;;6245168;23;20046;-68
2022/06/16 16:25:52;;;;;;;13.27;7.97;;;37.20;40.00;;;;;;6245447;23;20023;-68
2022/06/16 16:28:31;;;;;;;74.70;12.07;;;37.20;39.80;;;;;;6245224;23;20079;-67
2022/06/16 16:31:12;;;;;;;17.25;9.38;;;37.10;40.30;;;;;;6245125;23;20046;-66
2022/06/16 16:33:39;;;;;;;16.30;7.90;;;37.10;40.30;;;;;;6245398;23;20454;-67
2022/06/16 16:36:10;;;;;;;11.52;7.28;;;37.00;40.20;;;;;;6245122;22;20336;-58
2022/06/16 16:38:38;;;;;;;9.23;7.00;;;36.90;40.00;;;;;;6182988;23;20012;-61
2022/06/16 16:44:01;;;;;;;14.27;7.70;;;36.90;40.20;;;;;;6185145;23;20016;-62
2022/06/16 16:46:29;;;;;;;21.25;7.43;;;36.80;39.90;;;;;;6184749;23;20016;-62
2022/06/16 16:48:58;;;;;;;14.77;7.32;;;36.80;39.50;;;;;;6184739;23;20028;-62
2022/06/16 16:51:25;;;;;;;12.30;7.63;;;36.70;40.60;;;;;;6184676;23;20100;-61
2022/06/16 16:53:56;;;;;;;18.00;7.82;;;36.60;40.70;;;;;;6184803;23;20005;-62
2022/06/16 16:56:37;;;;;;;18.67;8.55;;;36.60;41.30;;;;;;6183817;23;20004;-62
2022/06/16 16:59:09;;;;;;;11.82;7.30;;;36.60;41.30;;;;;;6184898;23;20001;-61
2022/06/16 17:01:39;;;;;;;13.18;8.43;;;36.50;41.70;;;;;;6158176;23;20005;-61
2022/06/16 17:04:15;;;;;;;10.82;7.88;;;36.40;41.40;;;;;;6184162;23;20032;-62
2022/06/16 17:06:41;;;;;;;12.65;7.95;;;36.40;42.20;;;;;;6184697;23;20352;-62
2022/06/16 17:09:09;;;;;;;20.15;8.63;;;36.40;42.80;;;;;;6184562;23;20346;-61
2022/06/16 17:11:51;;;;;;;17.52;8.77;;;36.30;42.40;;;;;;6185064;23;20016;-62
2022/06/16 17:14:47;;;;;;;18.15;9.13;;;36.20;42.40;;;;;;6184834;23;20032;-62
2022/06/16 17:17:14;;;;;;;12.40;8.70;;;36.20;42.50;;;;;;6177868;23;20005;-62
2022/06/16 17:19:45;;;;;;;14.50;8.15;;;36.10;42.60;;;;;;6184818;23;20005;-61
2022/06/16 17:22:11;;;;;;;12.95;7.40;;;36.10;42.70;;;;;;6184685;23;20308;-61
2022/06/16 17:24:37;;;;;;;;;;;36.00;43.00;;;;;;6184964;23;20408;-61
2022/06/16 17:27:05;;;;;;;12.88;7.72;;;35.90;42.90;;;;;;6157949;23;19907;-61
2022/06/16 17:29:32;;;;;;;18.60;8.95;;;35.80;43.20;;;;;;6184708;23;20005;-61
2022/06/16 17:32:03;;;;;;;19.25;7.03;;;35.80;43.30;;;;;;6184262;23;20436;-62
2022/06/16 17:34:39;;;;;;;18.33;8.27;;;35.90;43.20;;;;;;6184683;23;20395;-61
2022/06/16 17:37:31;;;;;;;12.20;8.57;;;35.90;43.50;;;;;;6184215;23;20436;-61
2022/06/16 17:39:58;;;;;;;15.77;8.98;;;35.80;43.20;;;;;;6184288;23;20321;-62
2022/06/16 17:42:24;;;;;;;12.80;9.63;;;35.80;43.60;;;;;;6184066;23;20502;-62
2022/06/16 17:44:51;;;;;;;22.25;11.40;;;35.80;43.80;;;;;;6184460;23;20005;-62
2022/06/16 17:47:17;;;;;;;17.45;10.00;;;35.80;43.70;;;;;;6183934;23;20004;-61
2022/06/16 17:49:44;;;;;;;14.70;11.05;;;35.70;44.40;;;;;;6184514;23;20008;-61
2022/06/16 18:00:24;;;;;;;15.20;11.52;;;35.30;44.30;;;;;;6184451;23;20011;-62
2022/06/16 18:02:50;;;;;;;22.63;12.75;;;35.30;44.50;;;;;;6183683;23;20001;-62
2022/06/16 18:05:16;;;;;;;24.73;14.57;;;35.20;44.60;;;;;;6184540;23;20051;-62
2022/06/16 18:07:42;;;;;;;22.70;13.40;;;35.10;44.50;;;;;;6184184;23;20001;-61
2022/06/16 18:10:14;;;;;;;18.40;14.30;;;35.00;44.90;;;;;;6184381;23;20005;-61
2022/06/16 18:12:41;;;;;;;27.25;13.85;;;35.00;45.10;;;;;;6182975;23;20028;-62
2022/06/16 18:15:18;;;;;;;21.05;13.68;;;34.90;45.60;;;;;;6183061;23;20379;-61
2022/06/16 18:17:45;;;;;;;20.52;15.20;;;34.80;45.40;;;;;;6157199;23;20008;-62
2022/06/16 18:20:14;;;;;;;16.75;14.85;;;34.70;45.90;;;;;;6183184;23;20332;-61
2022/06/16 18:22:41;;;;;;;17.25;11.50;;;34.60;46.30;;;;;;6183667;23;20505;-61
2022/06/16 18:25:13;;;;;;;17.05;11.48;;;34.50;46.60;;;;;;6183832;23;20005;-61
2022/06/16 18:27:39;;;;;;;11.30;9.40;;;34.40;46.90;;;;;;6183680;23;19997;-61
2022/06/16 18:30:05;;;;;;;15.23;8.73;;;34.30;47.20;;;;;;6183459;23;20012;-62
2022/06/16 18:32:31;;;;;;;15.38;8.98;;;34.30;47.80;;;;;;6183716;23;20032;-61
2022/06/16 18:34:57;;;;;;;14.82;9.07;;;34.20;47.30;;;;;;6183739;23;20268;-62
2022/06/16 18:37:23;;;;;;;;;;;34.20;47.90;;;;;;6184000;23;20024;-61
2022/06/16 18:39:49;;;;;;;15.60;9.40;;;34.10;47.70;;;;;;6183430;23;19908;-61
2022/06/16 18:42:16;;;;;;;12.18;9.90;;;34.00;47.90;;;;;;6183344;23;20070;-61
2022/06/16 18:44:44;;;;;;;15.95;11.50;;;34.00;48.20;;;;;;6182924;23;20012;-61
2022/06/16 18:47:19;;;;;;;14.88;10.95;;;33.90;48.30;;;;;;6183023;23;20008;-61
2022/06/16 18:49:47;;;;;;;16.83;11.50;;;33.80;48.90;;;;;;6183538;23;20024;-62
2022/06/16 18:52:18;;;;;;;18.20;12.68;;;33.70;48.80;;;;;;6182455;23;20119;-61
2022/06/16 18:54:45;;;;;;;16.20;12.25;;;33.70;49.20;;;;;;6183227;23;20016;-61
2022/06/16 18:57:13;;;;;;;38.38;25.60;;;33.60;50.10;;;;;;6183418;23;20000;-62
2022/06/16 18:59:40;;;;;;;32.67;25.60;;;33.40;50.70;;;;;;6183170;23;20005;-62
2022/06/16 19:02:32;;;;;;;18.88;13.25;;;33.30;50.70;;;;;;6183074;23;19997;-62
2022/06/16 19:04:59;;;;;;;32.75;14.88;;;33.20;50.30;;;;;;6175954;23;20009;-61
2022/06/16 19:07:27;;;;;;;22.42;16.25;;;33.10;50.40;;;;;;6183194;23;19997;-61
2022/06/16 19:09:54;;;;;;;23.75;16.17;;;33.00;50.60;;;;;;6183630;23;19997;-61
2022/06/16 19:12:23;;;;;;;23.95;15.48;;;33.00;50.80;;;;;;6183194;23;20447;-61
2022/06/16 19:14:58;;;;;;;26.15;15.63;;;32.90;50.90;;;;;;6182568;23;20451;-62
2022/06/16 19:17:30;;;;;;;17.98;15.35;;;32.90;51.10;;;;;;6183072;23;20009;-61
2022/06/16 19:20:13;;;;;;;24.20;15.73;;;32.80;52.10;;;;;;6182753;23;19998;-62
2022/06/16 19:22:40;;;;;;;17.80;15.27;;;32.70;51.90;;;;;;6182906;23;20025;-63
2022/06/16 19:25:09;;;;;;;20.00;13.75;;;32.60;53.10;;;;;;6183022;23;20005;-61
2022/06/16 19:27:35;;;;;;;23.70;14.43;;;32.50;52.30;;;;;;6182930;23;20459;-61
2022/06/16 19:30:02;;;;;;;16.73;13.18;;;32.40;52.20;;;;;;6183161;23;19997;-61
2022/06/16 19:32:28;;;;;;;26.75;15.95;;;32.40;51.90;;;;;;6182816;23;20008;-60
2022/06/16 19:34:54;;;;;;;;;;;32.40;52.10;;;;;;6183769;23;20076;-64
2022/06/16 19:37:19;;;;;;;17.55;12.95;;;32.30;51.80;;;;;;6183076;23;19981;-61
2022/06/16 19:39:54;;;;;;;21.63;13.30;;;32.20;51.90;;;;;;6157341;23;20013;-61
2022/06/16 19:42:20;;;;;;;22.85;12.82;;;32.20;52.00;;;;;;6182695;23;20084;-61
2022/06/16 19:53:12;;;;;;;19.65;12.45;;;32.10;52.70;;;;;;6182796;23;20075;-62
2022/06/16 19:55:39;;;;;;;18.33;14.88;;;31.90;52.30;;;;;;6157007;23;20009;-61
2022/06/16 19:58:12;;;;;;;24.48;13.00;;;31.90;52.60;;;;;;6156773;23;20005;-61
2022/06/16 20:00:43;;;;;;;24.85;15.18;;;31.90;53.60;;;;;;6183093;23;20518;-61
2022/06/16 20:03:10;;;;;;;32.50;13.95;;;31.80;53.50;;;;;;6183645;23;20130;-61
2022/06/16 20:05:37;;;;;;;42.15;14.60;;;31.70;53.60;;;;;;6156718;23;20444;-61
2022/06/16 20:08:03;;;;;;;28.52;14.18;;;31.70;54.10;;;;;;6156809;23;20009;-61
2022/06/16 20:10:29;;;;;;;25.52;12.48;;;31.70;54.00;;;;;;6183081;23;20428;-61
2022/06/16 20:12:55;;;;;;;18.67;12.13;;;31.70;53.70;;;;;;6156690;23;20005;-61
2022/06/16 20:15:23;;;;;;;23.55;14.88;;;31.70;53.50;;;;;;6182946;23;20029;-61
2022/06/16 20:17:49;;;;;;;24.38;15.23;;;31.60;54.20;;;;;;6155041;23;20273;-61
2022/06/16 20:20:16;;;;;;;27.73;15.80;;;31.70;53.50;;;;;;6182798;23;20009;-60
2022/06/16 20:22:44;;;;;;;21.05;15.43;;;31.60;53.40;;;;;;6182782;23;20542;-61
2022/06/16 20:25:13;;;;;;;45.88;16.73;;;31.60;53.90;;;;;;6183005;23;20005;-62
2022/06/16 20:27:41;;;;;;;22.10;15.35;;;31.60;53.60;;;;;;6183067;23;20008;-61
2022/06/16 20:30:08;;;;;;;25.80;15.95;;;31.50;53.60;;;;;;6183272;23;20005;-62
2022/06/16 20:32:34;;;;;;;29.23;18.40;;;31.50;53.30;;;;;;6182705;23;20001;-61
2022/06/16 20:35:00;;;;;;;30.83;18.17;;;31.50;53.50;;;;;;6183004;23;20016;-61
2022/06/16 20:37:26;;;;;;;22.30;18.33;;;31.50;53.70;;;;;;6182586;23;20232;-62
2022/06/16 20:39:52;;;;;;;30.92;19.83;;;31.40;53.80;;;;;;6183075;23;20059;-61
2022/06/16 20:42:19;;;;;;;38.78;21.08;;;31.40;54.00;;;;;;6182454;23;20076;-62
2022/06/16 20:44:54;;;;;;;26.08;18.00;;;31.40;54.20;;;;;;6184469;23;20005;-61
2022/06/16 20:47:20;;;;;;;35.33;20.23;;;31.30;54.00;;;;;;6184822;23;20001;-61
2022/06/16 20:49:48;;;;;;;33.50;19.17;;;31.20;54.00;;;;;;6185199;23;20004;-61
2022/06/16 20:52:16;;;;;;;28.05;19.40;;;31.20;54.10;;;;;;6183103;23;20073;-61
2022/06/16 20:54:43;;;;;;;29.35;17.02;;;31.20;54.40;;;;;;6184572;23;20036;-61
2022/06/16 21:02:40;;;;;;;31.60;19.42;;;31.10;54.70;;;;;;6183251;23;20517;-62
2022/06/16 21:05:13;;;;;;;33.40;19.83;;;31.00;54.80;;;;;;6158009;23;20005;-61
2022/06/16 21:07:40;;;;;;;48.90;27.90;;;31.00;55.20;;;;;;6184391;23;20009;-62
2022/06/16 21:10:15;;;;;;;28.05;22.52;;;30.90;55.30;;;;;;6158047;23;20006;-63
2022/06/16 21:12:44;;;;;;;28.33;22.83;;;30.80;55.50;;;;;;6157221;23;20005;-63
2022/06/16 21:15:10;;;;;;;26.55;23.35;;;30.70;56.00;;;;;;6184526;23;20453;-63
2022/06/16 21:17:36;;;;;;;34.07;24.73;;;30.60;56.40;;;;;;6158094;23;20009;-63
2022/06/16 21:20:04;;;;;;;26.87;24.10;;;30.40;56.80;;;;;;6184540;23;20220;-62
2022/06/16 21:22:36;;;;;;;34.67;24.63;;;30.30;56.80;;;;;;6158100;23;20013;-62
2022/06/16 21:25:05;;;;;;;28.15;23.20;;;30.30;57.30;;;;;;6184384;23;20424;-63
2022/06/16 21:27:30;;;;;;;28.73;22.80;;;30.30;56.90;;;;;;6183585;23;20443;-62
2022/06/16 21:29:56;;;;;;;35.70;23.83;;;30.30;57.00;;;;;;6183907;23;20040;-62
2022/06/16 21:32:25;;;;;;;43.45;23.73;;;30.30;56.90;;;;;;6183492;23;20001;-62
2022/06/16 21:34:54;;;;;;;23.42;21.02;;;30.30;56.60;;;;;;6184656;23;20073;-62
2022/06/16 21:37:26;;;;;;;38.15;22.73;;;30.40;56.10;;;;;;6157578;23;20013;-62
2022/06/16 21:39:52;;;;;;;27.38;22.52;;;30.40;56.00;;;;;;6184643;23;20005;-62
2022/06/16 21:42:19;;;;;;;26.02;23.60;;;30.30;55.80;;;;;;6184151;23;20001;-62
2022/06/16 21:44:45;;;;;;;27.23;23.85;;;30.30;55.60;;;;;;6182603;23;20028;-62
2022/06/16 21:47:16;;;;;;;25.95;23.27;;;30.30;55.80;;;;;;6157423;23;20036;-63
2022/06/16 21:49:44;;;;;;;25.40;22.92;;;30.30;55.60;;;;;;6184640;23;20367;-62
2022/06/16 21:52:17;;;;;;;25.20;22.65;;;30.20;55.60;;;;;;6184066;23;20004;-63
2022/06/16 21:54:42;;;;;;;26.75;21.92;;;30.20;55.60;;;;;;6184331;23;20012;-63
2022/06/16 21:57:10;;;;;;;29.37;22.33;;;30.20;55.50;;;;;;6157989;23;20005;-62
2022/06/16 21:59:36;;;;;;;24.08;21.63;;;30.20;55.60;;;;;;6184639;23;20001;-62
2022/06/16 22:02:02;;;;;;;26.23;22.53;;;30.20;55.70;;;;;;6183458;23;20380;-63
2022/06/16 22:04:34;;;;;;;25.65;22.25;;;30.20;55.60;;;;;;6184234;23;20001;-62
2022/06/16 22:07:00;;;;;;;28.73;22.13;;;30.20;55.70;;;;;;6183761;23;20005;-62
2022/06/16 22:09:26;;;;;;;27.98;23.63;;;30.20;55.90;;;;;;6183469;23;20005;-62
2022/06/16 22:17:26;;;;;;;24.90;20.80;;;30.00;56.10;;;;;;6183041;23;20064;-63
2022/06/16 22:19:54;;;;;;;23.00;19.25;;;29.90;56.00;;;;;;6183813;23;20436;-62
2022/06/16 22:22:20;;;;;;;18.73;16.38;;;29.90;56.30;;;;;;6183632;23;20413;-62
2022/06/16 22:24:46;;;;;;;19.40;16.52;;;29.80;56.20;;;;;;6183932;23;20008;-62
2022/06/16 22:27:14;;;;;;;19.83;15.25;;;29.80;56.20;;;;;;6183436;23;20001;-62
2022/06/16 22:29:41;;;;;;;24.65;14.60;;;29.70;56.20;;;;;;6183753;23;20453;-62
2022/06/16 22:32:13;;;;;;;20.38;13.10;;;29.70;56.20;;;;;;6183709;23;20102;-62
2022/06/16 22:34:39;;;;;;;16.02;13.63;;;29.70;56.30;;;;;;6184071;23;20402;-62
2022/06/16 22:37:05;;;;;;;15.63;13.68;;;29.60;56.20;;;;;;6208970;22;20008;-63
2022/06/16 22:42:16;;;;;;;18.20;16.00;;;29.50;56.80;;;;;;6274811;22;20057;-63
2022/06/16 22:44:41;;;;;;;;;;;29.50;57.00;;;;;;6275398;22;20520;-63
2022/06/16 22:47:11;;;;;;;25.40;16.90;;;29.40;57.00;;;;;;6274701;22;19899;-64
2022/06/16 22:49:38;;;;;;;20.33;15.63;;;29.30;57.50;;;;;;6247020;22;20008;-64
2022/06/16 22:52:04;;;;;;;17.67;15.93;;;29.20;57.60;;;;;;6274708;22;20078;-63
2022/06/16 22:57:14;;;;;;;15.15;13.70;;;29.20;57.70;;;;;;6274701;22;20031;-63
2022/06/16 22:59:40;;;;;;;16.73;13.93;;;29.10;57.70;;;;;;6275020;22;20026;-64
2022/06/16 23:02:06;;;;;;;16.35;12.52;;;29.10;57.60;;;;;;6274633;22;20003;-64
2022/06/16 23:04:35;;;;;;;15.25;12.95;;;29.00;57.60;;;;;;6274967;22;20066;-63
2022/06/16 23:07:01;;;;;;;16.30;11.93;;;28.90;57.80;;;;;;6274386;22;20495;-63
2022/06/16 23:09:35;;;;;;;16.52;11.35;;;28.80;57.90;;;;;;6274762;22;20337;-64
2022/06/16 23:12:00;;;;;;;18.00;11.73;;;28.80;58.00;;;;;;6274617;22;20434;-64
2022/06/16 23:14:28;;;;;;;15.60;10.32;;;28.70;57.90;;;;;;6247602;22;20056;-64
2022/06/16 23:16:55;;;;;;;16.02;10.43;;;28.70;57.70;;;;;;6247359;22;20035;-63
2022/06/16 23:19:25;;;;;;;16.60;9.32;;;28.70;57.80;;;;;;6274626;22;20315;-63
2022/06/16 23:21:52;;;;;;;13.43;10.43;;;28.60;57.70;;;;;;6274580;22;20435;-63
2022/06/16 23:24:18;;;;;;;13.88;9.02;;;28.50;57.60;;;;;;6247456;22;20438;-63
2022/06/16 23:26:46;;;;;;;13.73;8.73;;;28.50;57.60;;;;;;6274169;22;19999;-63
2022/06/16 23:29:12;;;;;;;9.25;8.35;;;28.40;57.70;;;;;;6274829;22;19996;-62
2022/06/16 23:31:48;;;;;;;13.50;9.18;;;28.30;57.80;;;;;;6274401;22;19996;-63
2022/06/16 23:34:16;;;;;;;14.05;9.52;;;28.30;57.30;;;;;;6274832;22;20138;-63
2022/06/16 23:36:47;;;;;;;9.18;7.75;;;28.30;57.40;;;;;;6277925;22;20011;-63
2022/06/16 23:39:15;;;;;;;15.05;8.57;;;28.20;57.30;;;;;;6305400;22;20007;-63
2022/06/16 23:41:42;;;;;;;11.27;8.63;;;28.20;57.00;;;;;;6278057;22;20003;-63
2022/06/16 23:44:08;;;;;;;14.63;8.23;;;28.10;56.90;;;;;;6305706;22;20003;-63
2022/06/16 23:46:35;;;;;;;12.80;7.95;;;28.10;56.80;;;;;;6277853;22;20449;-63
2022/06/16 23:49:02;;;;;;;12.32;8.23;;;28.10;56.80;;;;;;6305474;22;20056;-63
2022/06/16 23:51:35;;;;;;;9.75;8.30;;;28.10;56.90;;;;;;6305003;22;20407;-63
2022/06/16 23:54:08;;;;;;;11.50;8.55;;;28.10;57.10;;;;;;6305573;22;20052;-63
2022/06/16 23:56:34;;;;;;;10.80;9.02;;;28.00;56.80;;;;;;6305314;22;20003;-63
2022/06/16 23:59:00;;;;;;;11.73;9.40;;;28.00;57.10;;;;;;6305465;22;20072;-63
